Terminal Aerodrome Forecast
Issued by NWS

Home | Current Version | Previous Version | Text Only | Print | Product List | Glossary On
Versions: 1 2 3 4 5 6 7 8 9 10 11 12
000
FTUS45 KRIW 211100
TAFWRL
TAF
KWRL 211134Z 2112/2212 VRB06KT P6SM FEW110
     FM211700 18008KT P6SM SCT080 BKN130
     FM212000 21013G21KT P6SM SCT080 BKN130
     FM220300 35011KT P6SM SCT120
     FM220800 VRB05KT P6SM FEW150=

USA.gov is the U.S. government's official web portal to all federal, state and local government web resources and services.